首页
METAR-TAF:

METAR-TAF

机场 :

Mission Field

利文斯顿, 蒙大拿州, 美国

纬度: 45-41-58N, 经度: 110-26-54W, 海拔: 1419米

当前天气观测

该预报发布于37分钟前的01:53 UTC
风速20节,风向南转西南,有时为25节阵风
温度 24°C
湿度 22%
气压 1010 hPa
能見度: 16.1公里
天空无云

METAR: KLVM 010153Z AUTO 21020G25KT 10SM CLR 24/01 A2983 RMK AO2 PK WND 22031/0120 SLP052 T02440011

时间: 20:30 (02:30 UTC)

预报

该预报发布于2小时和58分钟前的23:32 UTC
预报有效从01日的 00点(UTC)到 01日的 24点(UTC)
风速24节,风向西南,有时为33节阵风
能見度: 10公里
散云层高于20000英尺
从 01日的 0300点(UTC)
风速17节,风向西南
能見度: 10公里
天空无云
从 01日的 1000点(UTC)
风速11节,风向西南
能見度: 10公里
少量云层高于12000英尺
多云层高于20000英尺
从 01日的 1400点(UTC)
风速6节,风向
能見度: 10公里
少量云层高于12000英尺
多云层高于20000英尺

TAF: KLVM 312332Z 0100/0124 22024G33KT P6SM SCT200 FM010300 22017KT P6SM SKC FM011000 22011KT P6SM FEW120 BKN200 FM011400 01006KT P6SM FEW120 BKN200

超过4000个机场的气象观测和天气预报(METAR&TAF报告)。

可查询的气象台以黄色和红色小点在地图上表示。

将鼠标移到小点上方,可查看气象台名称。

然后点击查看天气观测和预报。

如需切换地图:点击带黑十字的绿色按钮放大地图;点击带横线的绿色按钮缩小地图;或者点击绿色箭头查看邻近地区的地图。


METAR-TAF: